Divide, MT (59727)

15:08 MDT le 01 juillet 2015 (GMT -0600)
Mooney | | Change Station
CLOSE
Current Station
Aéroport
Location: Butte,
Altitude: 5545 ft
Stations météo à proximité

Alt. 5545 ft 45.95 °N, 112.50 °W | Updated 15 minutes ago

Ciel dégagé
Ciel dégagé
83 ° F
Paraît 83 ° F
N
5
Vent Variable Vent de NO

Aujourd'hui
Haut(e) -- | Bas -- ° F
--% Risque de précip.
Hier
Haut(e) -- | Bas -- ° F
Precip. -- pouce
5:44 AM 9:24 PM
Pleine lune, 100% visible
Pression 29.98 pouce
Visibilité 10.0 Miles terrestres
Nuages Ciel dégagé
Point de rosée 39 ° F
Humidité 21%
Précipitations 0.00 pouce
Profondeur de la couche neigeuse Non disponible.
UV 11 sur 12
Pollen 5.00 sur 12
Qualité de l'air Non disponible.
Flu Activity Non disponible.
METAR KBTM 012053Z AUTO 32004KT 10SM CLR 28/04 A3016 RMK AO2 SLP151 T02830039 56008

More Conditions Fewer Conditions

Pression 29.98 pouce
Visibilité 10.0 Miles terrestres
Nuages Ciel dégagé
Point de rosée 39 ° F
Humidité 21%
Précipitations 0.00 pouce
Profondeur de la couche neigeuse Non disponible.
UV 11 sur 12
Pollen 5.00 sur 12
Qualité de l'air Non disponible.
Flu Activity Non disponible.
METAR KBTM 012053Z AUTO 32004KT 10SM CLR 28/04 A3016 RMK AO2 SLP151 T02830039 56008

More Conditions Fewer Conditions

10-Day Weather Forecast

×

Almanac

Astronomie

Jul. 01, 2015 Lever Coucher
Temps réel
Crépuscule civil
Crépuscule nautique
Crépuscule astronomique
Lune
Durée de lumière visible
Longueur du jour
Tomorrow will be .
, % of the Moon is Illuminated

Extrêmes aujourd'hui

State Highs State Lows

Community

WunderPhotos

Upload Photos

1,834,286 Photos téléchargées !

WunderBlogs® & News

Nearby

Qualité de l'air

  Qualité de l'air Indice de la qualité de l'air Polluant
Not available.

Épaisseur de neige

Station Depth Altitude

Activité sismique

Ville Distance Mag. Time & Date
Minimum magnitude displayed is 2.5.

Températures des eaux côtières

Lieu Température

Stations

Stations météo à proximité

Emplacement de la station Température Refroidissement éolien Point de rosée Humidité Vent Precip. Alt. Mise à jour Type